Time;durP1;ratioP1;P1;durP2;ratioP2;P2;SDS_P1;SDS_P2;PMS_P1;PMS_P2;Temp;Humidity;BMP_temperature;BMP_pressure;BME280_temperature;BME280_humidity;BME280_pressure;Samples;Min_cycle;Max_cycle;Signal;HPM_P1;HPM_P2
2021/01/28 00:00:33;;;;;;;11.80;9.40;;;;;;;2.61;75.61;100018.38;4940828;29;20044;-73
2021/01/28 00:02:59;;;;;;;13.48;9.57;;;;;;;2.67;75.30;100012.41;4947666;29;20088;-72
2021/01/28 00:05:27;;;;;;;13.23;9.85;;;;;;;2.73;75.09;100018.59;4942756;29;20043;-73
2021/01/28 00:07:52;;;;;;;12.88;10.25;;;;;;;2.75;75.07;100018.63;4943906;28;20054;-73
2021/01/28 00:10:18;;;;;;;12.98;10.98;;;;;;;2.78;74.92;100010.88;4947534;28;20036;-73
2021/01/28 00:12:44;;;;;;;12.70;9.00;;;;;;;2.76;74.96;100005.63;4943427;29;20044;-73
2021/01/28 00:15:10;;;;;;;11.68;8.95;;;;;;;2.75;74.93;99997.75;4937986;29;20048;-73
2021/01/28 00:17:36;;;;;;;13.73;9.82;;;;;;;2.69;74.74;99997.66;4940743;29;20490;-73
2021/01/28 00:20:25;;;;;;;12.95;9.77;;;;;;;2.68;75.26;99985.50;4941407;29;20035;-73
2021/01/28 00:22:50;;;;;;;12.27;9.65;;;;;;;2.80;74.62;99975.28;4943986;28;20055;-73
2021/01/28 00:25:18;;;;;;;12.30;9.95;;;;;;;2.79;74.79;99978.75;4941013;28;20048;-73
2021/01/28 00:27:45;;;;;;;13.13;10.15;;;;;;;2.85;74.40;99973.63;4937679;29;20058;-73
2021/01/28 00:30:14;;;;;;;12.93;9.60;;;;;;;2.66;74.47;99989.81;4943769;28;20485;-72
2021/01/28 00:32:39;;;;;;;14.45;10.50;;;;;;;2.70;74.88;99991.59;4943882;28;20035;-73
2021/01/28 00:35:07;;;;;;;13.02;10.27;;;;;;;2.84;74.34;99982.31;4942308;29;20066;-72
2021/01/28 00:37:32;;;;;;;13.93;10.75;;;;;;;2.88;74.23;99983.22;4940431;29;20506;-73
2021/01/28 00:39:58;;;;;;;13.23;10.60;;;;;;;2.91;74.32;99981.56;4940542;29;20032;-73
2021/01/28 00:42:23;;;;;;;14.68;11.05;;;;;;;2.90;74.53;99971.97;4943727;29;20481;-73
2021/01/28 00:44:49;;;;;;;12.65;9.85;;;;;;;2.91;73.91;99973.72;4943678;28;20596;-73
2021/01/28 00:47:16;;;;;;;11.32;9.40;;;;;;;2.92;74.04;99961.56;4940648;28;20413;-73
2021/01/28 00:49:42;;;;;;;14.98;10.80;;;;;;;2.89;74.34;99954.56;4940155;29;20031;-73
2021/01/28 00:52:07;;;;;;;14.15;9.07;;;;;;;2.88;74.01;99952.81;4941670;29;20482;-73
2021/01/28 00:54:32;;;;;;;12.18;8.70;;;;;;;2.89;74.25;99953.72;4943767;28;20157;-72
2021/01/28 00:56:57;;;;;;;12.10;9.55;;;;;;;2.82;74.55;99960.53;4941971;28;20528;-72
2021/01/28 00:59:23;;;;;;;11.57;8.57;;;;;;;2.84;74.79;99956.25;4931402;29;20047;-73
2021/01/28 01:01:48;;;;;;;13.93;10.25;;;;;;;2.78;74.96;99953.53;4953827;28;20433;-73
2021/01/28 01:04:14;;;;;;;11.07;9.30;;;;;;;2.81;75.20;99943.16;4940757;28;20039;-73
2021/01/28 01:06:40;;;;;;;10.70;9.30;;;;;;;2.80;75.12;99944.00;4939795;29;20039;-72
2021/01/28 01:09:05;;;;;;;11.05;9.15;;;;;;;2.79;75.35;99939.66;4941251;29;20050;-73
2021/01/28 01:11:45;;;;;;;11.80;8.98;;;;;;;2.73;75.81;99944.78;4942094;28;20032;-73
2021/01/28 01:14:11;;;;;;;11.35;9.05;;;;;;;2.67;75.98;99931.63;4940008;28;20042;-73
2021/01/28 01:16:36;;;;;;;12.07;8.88;;;;;;;2.67;76.56;99937.72;4932611;29;20039;-73
2021/01/28 01:19:11;;;;;;;15.10;9.38;;;;;;;2.58;77.33;99927.16;4938634;28;20027;-73
2021/01/28 01:21:52;;;;;;;10.52;7.90;;;;;;;2.47;77.49;99936.53;4919068;29;20088;-73
2021/01/28 01:24:20;;;;;;;10.45;8.50;;;;;;;2.40;78.03;99922.50;4938467;29;20494;-73
2021/01/28 01:26:46;;;;;;;11.13;8.60;;;;;;;2.46;77.92;99921.72;4933784;29;20042;-73
2021/01/28 01:29:12;;;;;;;10.82;9.32;;;;;;;2.44;78.44;99918.22;4954292;28;20032;-72
2021/01/28 01:31:55;;;;;;;12.02;9.15;;;;;;;2.42;78.75;99921.69;4935321;29;20043;-73
2021/01/28 01:34:22;;;;;;;11.30;8.88;;;;;;;2.39;79.36;99920.75;4938452;28;20182;-73
2021/01/28 01:36:47;;;;;;;12.02;9.98;;;;;;;2.41;79.80;99925.16;4939295;29;20027;-73
2021/01/28 01:39:12;;;;;;;12.23;9.55;;;;;;;2.47;79.59;99920.91;4937365;29;20058;-73
2021/01/28 01:41:45;;;;;;;10.63;8.38;;;;;;;2.46;79.52;99920.00;4937679;29;20044;-72
2021/01/28 01:44:15;;;;;;;12.05;9.30;;;;;;;2.37;80.73;99918.13;4945846;29;20070;-72
2021/01/28 01:46:46;;;;;;;12.10;8.57;;;;;;;2.38;80.45;99908.56;4936851;29;20035;-73
2021/01/28 01:49:20;;;;;;;11.88;9.57;;;;;;;2.35;81.16;99900.72;4947009;29;20051;-73
2021/01/28 01:51:45;;;;;;;11.85;9.13;;;;;;;2.38;80.48;99908.56;4945040;28;20035;-72
2021/01/28 01:54:34;;;;;;;11.32;8.63;;;;;;;2.36;81.24;99902.50;4945997;29;20036;-73
2021/01/28 01:57:07;;;;;;;10.43;8.10;;;;;;;2.41;81.02;99903.41;4944167;29;20032;-73
2021/01/28 01:59:48;;;;;;;10.88;8.65;;;;;;;2.42;80.87;99900.84;4941259;29;20046;-73
2021/01/28 02:02:43;;;;;;;11.48;8.68;;;;;;;2.46;81.27;99900.88;4939201;29;20418;-73
2021/01/28 02:05:34;;;;;;;10.05;7.97;;;;;;;2.51;80.47;99904.44;4938695;29;20114;-73
2021/01/28 02:08:19;;;;;;;10.13;8.23;;;;;;;2.47;80.82;99895.72;4942449;29;20058;-73
2021/01/28 02:11:07;;;;;;;12.07;9.13;;;;;;;2.47;80.87;99887.91;4941517;29;20039;-73
2021/01/28 02:13:55;;;;;;;9.05;7.53;;;;;;;2.46;80.46;99891.34;4934304;29;20046;-73
2021/01/28 02:16:45;;;;;;;12.23;7.82;;;;;;;2.50;80.29;99876.66;4937687;28;20512;-73
2021/01/28 02:19:51;;;;;;;11.48;7.82;;;;;;;2.51;80.32;99870.59;4937507;29;20046;-73
2021/01/28 02:22:46;;;;;;;12.05;9.05;;;;;;;2.54;80.17;99866.31;4948382;29;20093;-73
2021/01/28 02:25:18;;;;;;;10.20;8.15;;;;;;;2.60;80.10;99869.00;4940011;28;20039;-73
2021/01/28 02:27:45;;;;;;;10.80;7.88;;;;;;;2.67;80.10;99861.28;4948909;28;20032;-73
2021/01/28 02:30:33;;;;;;;8.43;6.40;;;;;;;2.68;79.63;99855.22;4948738;28;20044;-73
2021/01/28 02:32:59;;;;;;;9.65;8.15;;;;;;;2.70;79.76;99853.50;4934921;29;20031;-73
2021/01/28 02:35:49;;;;;;;10.18;7.75;;;;;;;2.64;80.03;99862.09;4938682;29;20426;-73
2021/01/28 02:38:14;;;;;;;10.30;7.63;;;;;;;2.64;79.92;99865.59;4936871;29;20042;-72
2021/01/28 02:40:45;;;;;;;11.40;7.50;;;;;;;2.63;79.96;99871.66;4942293;29;20063;-73
2021/01/28 02:43:26;;;;;;;10.48;8.07;;;;;;;2.63;80.01;99863.84;4937616;29;20036;-73
2021/01/28 02:46:13;;;;;;;8.32;7.18;;;;;;;2.67;79.27;99858.66;4939080;29;20502;-73
2021/01/28 02:48:53;;;;;;;7.43;5.70;;;;;;;2.71;79.21;99860.47;4940850;28;20035;-73
2021/01/28 02:51:39;;;;;;;8.65;7.15;;;;;;;2.69;79.12;99856.97;4939074;28;20409;-73
2021/01/28 02:54:10;;;;;;;9.45;7.90;;;;;;;2.71;79.32;99866.56;4936018;29;20035;-73
2021/01/28 02:56:37;;;;;;;9.88;7.63;;;;;;;2.74;79.18;99860.53;4939421;29;20411;-73
2021/01/28 02:59:06;;;;;;;13.77;9.63;;;;;;;2.74;79.05;99857.91;4940758;28;20426;-73
2021/01/28 03:01:38;;;;;;;12.68;7.80;;;;;;;2.79;78.51;99856.25;4940528;29;20031;-73
2021/01/28 03:04:04;;;;;;;10.70;7.25;;;;;;;2.76;78.65;99854.47;4939624;29;20035;-73
2021/01/28 03:06:33;;;;;;;12.07;8.30;;;;;;;2.77;78.81;99857.97;4930723;29;20410;-73
2021/01/28 03:08:58;;;;;;;11.98;8.02;;;;;;;2.74;78.69;99847.50;4938419;29;20039;-73
2021/01/28 03:11:38;;;;;;;10.20;7.90;;;;;;;2.72;78.60;99850.06;4931718;29;20055;-73
2021/01/28 03:14:05;;;;;;;11.10;8.20;;;;;;;2.74;78.74;99850.09;4953126;28;20031;-73
2021/01/28 03:16:36;;;;;;;10.45;7.75;;;;;;;2.79;78.51;99849.31;4932883;29;20032;-73
2021/01/28 03:19:10;;;;;;;10.45;7.43;;;;;;;2.83;78.36;99839.81;4940571;29;20067;-73
2021/01/28 03:21:36;;;;;;;9.40;7.03;;;;;;;2.86;78.57;99845.06;4948353;29;20042;-73
2021/01/28 03:24:21;;;;;;;9.52;7.47;;;;;;;2.83;78.81;99845.91;4941754;28;20047;-73
2021/01/28 03:26:58;;;;;;;9.73;7.07;;;;;;;2.93;77.96;99840.81;4937131;29;20418;-73
2021/01/28 03:29:23;;;;;;;9.38;7.40;;;;;;;2.90;78.56;99841.63;4947803;28;20035;-72
2021/01/28 03:31:49;;;;;;;10.07;7.40;;;;;;;2.93;78.73;99830.38;4941475;29;20051;-73
2021/01/28 03:34:18;;;;;;;10.90;7.45;;;;;;;2.91;78.77;99837.28;4939709;29;20517;-73
2021/01/28 03:36:44;;;;;;;9.70;7.90;;;;;;;2.79;79.26;99832.81;4939813;29;20032;-71
2021/01/28 03:39:15;;;;;;;9.02;6.75;;;;;;;2.84;79.33;99828.53;4943772;29;20554;-73
2021/01/28 03:41:40;;;;;;;9.68;7.40;;;;;;;2.85;78.98;99812.03;4944589;28;20130;-73
2021/01/28 03:44:06;;;;;;;8.85;7.20;;;;;;;2.87;79.17;99810.31;4943292;28;20074;-73
2021/01/28 03:46:32;;;;;;;7.80;6.35;;;;;;;2.82;79.74;99804.19;4933405;29;20047;-72
2021/01/28 03:48:59;;;;;;;8.93;6.55;;;;;;;2.77;80.30;99798.91;4939844;28;20039;-73
2021/01/28 03:51:28;;;;;;;7.57;5.65;;;;;;;2.78;79.93;99798.06;4941224;29;20039;-73
2021/01/28 03:54:16;;;;;;;8.32;6.43;;;;;;;2.82;80.17;99804.19;4943693;29;20047;-72
2021/01/28 03:57:07;;;;;;;10.63;7.10;;;;;;;2.79;80.58;99791.09;4941543;29;20042;-72
2021/01/28 03:59:39;;;;;;;8.27;6.57;;;;;;;2.83;80.60;99791.19;4934140;29;20486;-73
2021/01/28 04:02:17;;;;;;;15.00;9.80;;;;;;;2.85;81.01;99789.44;4938620;28;20090;-73
2021/01/28 04:05:10;;;;;;;9.82;7.20;;;;;;;2.95;80.36;99786.97;4926796;29;20386;-73
2021/01/28 04:07:55;;;;;;;8.45;6.15;;;;;;;2.96;79.65;99784.41;4946448;28;20054;-73
2021/01/28 04:10:35;;;;;;;12.43;8.07;;;;;;;2.91;80.13;99780.84;4943316;28;20110;-73
2021/01/28 04:13:02;;;;;;;11.18;8.65;;;;;;;2.98;79.98;99771.38;4943537;28;20317;-73
2021/01/28 04:15:36;;;;;;;10.23;6.80;;;;;;;3.00;79.62;99754.88;4939361;29;20058;-73
2021/01/28 04:18:05;;;;;;;10.20;7.63;;;;;;;2.97;79.62;99757.47;4941882;29;20553;-73
2021/01/28 04:20:39;;;;;;;8.07;5.45;;;;;;;2.99;79.56;99747.06;4942679;29;20039;-73
2021/01/28 04:23:11;;;;;;;10.48;6.70;;;;;;;2.98;79.42;99745.28;4942282;28;20039;-73
2021/01/28 04:25:56;;;;;;;10.35;7.15;;;;;;;3.02;79.36;99747.09;4940072;29;20537;-72
2021/01/28 04:28:24;;;;;;;11.00;6.72;;;;;;;3.07;79.17;99742.81;4942130;29;20038;-73
2021/01/28 04:31:02;;;;;;;8.02;5.70;;;;;;;3.09;78.87;99735.84;4941868;28;20043;-72
2021/01/28 04:33:28;;;;;;;7.70;5.60;;;;;;;3.06;79.01;99741.91;4932419;29;20027;-73
2021/01/28 04:36:01;;;;;;;6.88;4.82;;;;;;;3.13;78.73;99739.41;4954854;28;20493;-73
2021/01/28 04:38:26;;;;;;;6.20;4.43;;;;;;;3.16;78.72;99745.50;4932082;29;20039;-73
2021/01/28 04:41:12;;;;;;;8.07;4.65;;;;;;;3.17;78.54;99738.56;4939064;28;20038;-73
2021/01/28 04:43:40;;;;;;;6.45;4.68;;;;;;;3.22;78.29;99731.66;4933983;29;20050;-72
2021/01/28 04:46:41;;;;;;;7.63;4.75;;;;;;;3.12;78.08;99746.34;4938907;29;20032;-73
2021/01/28 04:49:27;;;;;;;6.05;4.57;;;;;;;3.16;78.26;99736.81;4940228;29;20050;-72
2021/01/28 04:52:15;;;;;;;6.28;4.78;;;;;;;3.15;78.02;99727.25;4942474;29;20067;-73
2021/01/28 04:54:55;;;;;;;8.65;4.85;;;;;;;3.20;77.95;99725.56;4942282;29;20096;-73
2021/01/28 04:57:29;;;;;;;6.53;4.80;;;;;;;3.22;78.02;99729.94;4938942;29;20489;-73
2021/01/28 04:59:55;;;;;;;6.65;4.55;;;;;;;3.26;77.86;99730.84;4952106;28;20042;-73
2021/01/28 05:02:28;;;;;;;6.10;4.40;;;;;;;3.27;77.70;99732.59;4942269;28;20031;-72
2021/01/28 05:05:13;;;;;;;7.15;5.22;;;;;;;3.26;78.07;99734.31;4940765;29;20067;-73
2021/01/28 05:08:05;;;;;;;7.05;5.70;;;;;;;3.32;78.15;99717.84;4933620;29;20051;-72
2021/01/28 05:10:54;;;;;;;7.30;5.40;;;;;;;3.35;77.96;99730.91;4940238;29;20134;-72
2021/01/28 05:13:51;;;;;;;7.03;4.88;;;;;;;3.25;78.39;99718.69;4938750;29;20040;-73
2021/01/28 05:16:49;;;;;;;7.82;5.63;;;;;;;3.32;77.77;99719.59;4939749;29;20036;-72
2021/01/28 05:19:35;;;;;;;7.68;5.63;;;;;;;3.28;78.11;99713.50;4943127;29;20130;-74
2021/01/28 05:22:26;;;;;;;7.85;5.95;;;;;;;3.35;78.00;99711.78;4939226;29;20664;-71
2021/01/28 05:25:16;;;;;;;7.03;5.53;;;;;;;3.40;77.90;99705.75;4935770;29;20066;-70
2021/01/28 05:27:57;;;;;;;7.03;5.30;;;;;;;3.37;77.89;99705.72;4943508;28;20039;-70
2021/01/28 05:30:40;;;;;;;7.85;5.20;;;;;;;3.42;77.98;99706.66;4941703;29;20031;-70
2021/01/28 05:33:31;;;;;;;7.33;5.83;;;;;;;3.47;77.41;99706.72;4941847;28;20042;-70
2021/01/28 05:36:22;;;;;;;9.20;6.25;;;;;;;3.42;77.58;99700.56;4941731;29;20113;-69
2021/01/28 05:39:40;;;;;;;7.60;5.68;;;;;;;3.47;77.81;99698.88;4939809;29;20070;-71
2021/01/28 05:42:29;;;;;;;9.70;7.25;;;;;;;3.49;78.26;99692.81;4940220;28;20035;-71
2021/01/28 05:45:17;;;;;;;7.20;5.03;;;;;;;3.51;77.87;99695.41;4940871;29;20081;-70
2021/01/28 05:47:45;;;;;;;7.15;4.97;;;;;;;3.50;77.94;99697.16;4933431;29;20093;-69
2021/01/28 05:50:31;;;;;;;8.02;5.65;;;;;;;3.46;78.52;99692.78;4938102;28;20520;-70
2021/01/28 05:53:17;;;;;;;7.60;5.38;;;;;;;3.53;77.85;99690.22;4935687;29;20031;-70
2021/01/28 05:55:50;;;;;;;6.05;4.60;;;;;;;3.54;78.01;99689.34;4941761;29;20035;-70
2021/01/28 05:58:20;;;;;;;7.97;5.80;;;;;;;3.48;77.93;99685.88;4944896;29;20081;-70
2021/01/28 06:01:18;;;;;;;7.68;5.68;;;;;;;3.47;78.48;99689.31;4943845;28;20035;-70
2021/01/28 06:03:58;;;;;;;8.93;4.63;;;;;;;3.51;77.67;99677.16;4945439;29;20046;-70
2021/01/28 06:07:00;;;;;;;7.50;4.70;;;;;;;3.53;77.76;99690.22;4939083;29;20117;-70
2021/01/28 06:10:08;;;;;;;7.85;5.82;;;;;;;3.48;78.20;99679.75;4937933;29;20054;-69
2021/01/28 06:13:31;;;;;;;7.50;5.28;;;;;;;3.53;78.56;99685.00;4939102;29;20047;-70
2021/01/28 06:16:21;;;;;;;7.78;5.75;;;;;;;3.49;78.42;99681.50;4939327;29;20114;-70
2021/01/28 06:19:10;;;;;;;6.93;4.90;;;;;;;3.51;78.30;99679.78;4940995;29;20416;-70
2021/01/28 06:21:58;;;;;;;7.03;4.78;;;;;;;3.50;78.70;99673.69;4937839;29;20528;-70
2021/01/28 06:25:05;;;;;;;;;;;;;;;3.47;78.68;99678.88;4945029;28;20049;-70
2021/01/28 06:27:52;;;;;;;7.70;5.40;;;;;;;3.39;79.75;99675.34;4947381;29;19921;-70
2021/01/28 06:30:30;;;;;;;7.75;5.47;;;;;;;3.33;80.15;99677.91;4949657;29;20066;-70
2021/01/28 06:33:23;;;;;;;8.70;5.50;;;;;;;3.31;80.16;99674.38;4940850;29;20040;-70
2021/01/28 06:36:19;;;;;;;7.95;5.70;;;;;;;3.27;80.37;99681.31;4947869;29;20047;-69
2021/01/28 06:39:31;;;;;;;7.43;5.30;;;;;;;3.24;80.71;99675.19;4941930;29;20051;-69
2021/01/28 06:42:43;;;;;;;10.43;7.40;;;;;;;3.24;81.04;99672.56;4927007;29;20498;-70
2021/01/28 06:45:26;;;;;;;7.47;4.85;;;;;;;3.18;81.04;99670.78;4947191;29;20119;-69
2021/01/28 06:48:05;;;;;;;7.25;5.10;;;;;;;3.16;81.14;99664.69;4943645;29;20119;-70
2021/01/28 06:50:52;;;;;;;8.52;6.00;;;;;;;3.20;81.50;99661.25;4943708;28;20073;-69
2021/01/28 06:53:24;;;;;;;9.85;6.32;;;;;;;3.20;82.11;99668.22;4941327;29;20035;-69
2021/01/28 06:56:32;;;;;;;8.45;5.22;;;;;;;3.25;81.85;99658.69;4921995;29;20430;-70
2021/01/28 06:59:20;;;;;;;9.63;5.25;;;;;;;3.18;82.27;99660.34;4950670;29;20039;-70
2021/01/28 07:02:05;;;;;;;9.93;5.38;;;;;;;3.18;81.94;99657.75;4943560;29;20042;-70
2021/01/28 07:05:07;;;;;;;7.40;5.03;;;;;;;3.21;82.04;99654.28;4945625;28;20094;-69
2021/01/28 07:07:42;;;;;;;6.68;4.88;;;;;;;3.19;81.85;99651.66;4947769;29;20527;-69
2021/01/28 07:10:36;;;;;;;6.53;4.40;;;;;;;3.18;82.11;99655.16;4926011;29;20532;-69
2021/01/28 07:13:24;;;;;;;9.20;5.43;;;;;;;3.15;82.07;99649.03;4949247;29;20043;-69
2021/01/28 07:16:28;;;;;;;6.82;4.80;;;;;;;3.22;81.27;99646.50;4940901;29;20468;-69
2021/01/28 07:19:01;;;;;;;7.15;4.68;;;;;;;3.18;81.38;99646.44;4939999;29;20042;-70
2021/01/28 07:21:29;;;;;;;8.32;5.13;;;;;;;3.24;81.30;99643.88;4955180;28;20042;-70
2021/01/28 07:24:02;;;;;;;7.30;5.15;;;;;;;3.26;80.93;99637.84;4940604;29;20410;-69
2021/01/28 07:27:02;;;;;;;7.15;4.95;;;;;;;3.32;80.69;99637.00;4947367;29;20118;-69
2021/01/28 07:29:31;;;;;;;9.07;5.70;;;;;;;3.32;81.17;99628.31;4940642;29;20147;-70
2021/01/28 07:31:58;;;;;;;8.75;5.53;;;;;;;3.38;81.12;99633.56;4940318;28;20502;-69
2021/01/28 07:34:33;;;;;;;8.80;5.68;;;;;;;3.38;80.43;99628.34;4939061;29;20032;-70
2021/01/28 07:37:22;;;;;;;8.23;6.38;;;;;;;3.36;81.04;99623.16;4936353;29;20035;-69
2021/01/28 07:39:56;;;;;;;9.77;5.95;;;;;;;3.40;80.89;99622.28;4940059;29;20051;-70
2021/01/28 07:43:03;;;;;;;;;;;;;;;3.38;80.61;99604.88;4945787;29;20055;-68
2021/01/28 07:46:12;;;;;;;11.10;6.50;;;;;;;3.48;80.33;99599.78;4965875;28;19914;-70
2021/01/28 07:49:27;;;;;;;9.77;6.15;;;;;;;3.54;79.97;99587.59;4936220;29;20038;-70
2021/01/28 07:52:33;;;;;;;8.55;6.13;;;;;;;3.53;80.00;99588.47;4947175;28;20295;-70
2021/01/28 07:54:59;;;;;;;7.30;5.07;;;;;;;3.60;79.71;99590.28;4943970;28;20039;-69
2021/01/28 07:57:27;;;;;;;8.02;5.53;;;;;;;3.60;79.64;99587.66;4941213;29;20035;-70
2021/01/28 07:59:57;;;;;;;9.20;5.55;;;;;;;3.63;79.51;99587.69;4940839;28;20044;-69
2021/01/28 08:02:29;;;;;;;8.52;5.57;;;;;;;3.60;79.41;99582.44;4940094;29;20516;-69
2021/01/28 08:05:01;;;;;;;8.40;5.78;;;;;;;3.58;78.81;99572.00;4940969;29;20082;-70
2021/01/28 08:07:39;;;;;;;7.35;4.90;;;;;;;3.66;78.68;99564.22;4940840;29;20042;-70
2021/01/28 08:10:26;;;;;;;8.65;5.35;;;;;;;3.68;78.33;99567.72;4941772;29;20453;-69
2021/01/28 08:12:55;;;;;;;7.93;5.57;;;;;;;3.69;78.67;99570.34;4948199;28;20041;-70
2021/01/28 08:15:36;;;;;;;7.00;5.13;;;;;;;3.76;78.59;99563.41;4949155;28;20093;-68
2021/01/28 08:18:24;;;;;;;7.53;4.82;;;;;;;3.74;78.60;99563.38;4946088;28;20039;-70
2021/01/28 08:21:01;;;;;;;8.15;5.22;;;;;;;3.76;78.11;99566.03;4946597;28;20494;-70
2021/01/28 08:23:27;;;;;;;8.23;5.45;;;;;;;3.74;78.72;99567.75;4946813;29;20035;-70
2021/01/28 08:25:59;;;;;;;11.88;7.80;;;;;;;3.79;78.84;99565.16;4944232;29;20146;-70
2021/01/28 08:28:28;;;;;;;13.70;7.30;;;;;;;3.88;78.31;99563.50;4940639;29;20054;-70
2021/01/28 08:31:00;;;;;;;10.18;6.13;;;;;;;3.89;77.81;99560.00;4940557;29;20024;-70
2021/01/28 08:33:27;;;;;;;8.50;5.20;;;;;;;3.92;77.82;99567.84;4946901;29;20042;-69
2021/01/28 08:35:55;;;;;;;8.05;5.75;;;;;;;3.91;78.02;99570.47;4944409;28;20048;-70
2021/01/28 08:38:27;;;;;;;9.00;5.18;;;;;;;3.95;77.66;99569.59;4943683;29;20049;-69
2021/01/28 08:41:14;;;;;;;10.00;5.80;;;;;;;3.97;77.04;99567.00;4943636;28;20039;-70
2021/01/28 08:43:40;;;;;;;7.13;4.57;;;;;;;3.99;77.61;99571.38;4940504;29;20078;-70
2021/01/28 08:46:18;;;;;;;9.65;5.95;;;;;;;4.04;77.54;99564.44;4941175;29;20489;-69
2021/01/28 08:48:44;;;;;;;9.70;6.53;;;;;;;3.99;77.59;99560.94;4943648;28;20039;-70
2021/01/28 08:51:26;;;;;;;9.48;6.05;;;;;;;4.09;77.40;99559.25;4941964;28;20032;-70
2021/01/28 08:53:59;;;;;;;8.60;5.22;;;;;;;4.07;76.81;99558.38;4940608;29;20079;-70
2021/01/28 08:56:36;;;;;;;8.25;5.10;;;;;;;4.15;77.02;99548.81;4940000;29;20137;-70
2021/01/28 08:59:09;;;;;;;12.07;5.82;;;;;;;4.14;76.67;99552.31;4940761;29;20387;-70
2021/01/28 09:01:38;;;;;;;;;;;;;;;4.08;77.21;99549.66;4943726;28;20177;-70
2021/01/28 09:04:11;;;;;;;8.18;4.65;;;;;;;4.20;76.96;99554.94;4942492;28;19914;-70
2021/01/28 09:06:47;;;;;;;9.45;5.60;;;;;;;4.09;77.27;99556.63;4939810;29;20046;-69
2021/01/28 09:09:16;;;;;;;8.80;5.50;;;;;;;4.11;77.51;99561.00;4941909;29;20044;-70
2021/01/28 09:11:41;;;;;;;7.53;5.13;;;;;;;4.21;77.28;99553.19;4943259;28;20039;-69
2021/01/28 09:14:17;;;;;;;9.98;5.88;;;;;;;4.19;77.21;99555.78;4941905;28;20033;-70
2021/01/28 09:16:58;;;;;;;10.48;5.10;;;;;;;4.20;77.35;99552.31;4939715;29;20075;-70
2021/01/28 09:19:25;;;;;;;10.20;5.75;;;;;;;4.25;77.16;99549.72;4939821;29;20165;-70
2021/01/28 09:22:23;;;;;;;11.02;6.40;;;;;;;4.26;76.97;99547.09;4939797;29;20040;-70
2021/01/28 09:24:49;;;;;;;11.43;8.05;;;;;;;4.31;77.10;99548.00;4939813;29;20035;-70
2021/01/28 09:27:22;;;;;;;23.25;14.25;;;;;;;4.31;77.24;99553.22;4941833;29;20111;-70
2021/01/28 09:29:50;;;;;;;22.67;14.52;;;;;;;4.30;76.89;99543.66;4942972;29;20092;-68
2021/01/28 09:32:19;;;;;;;19.77;11.07;;;;;;;4.25;76.27;99544.50;4940445;29;20076;-69
2021/01/28 09:34:46;;;;;;;21.40;13.90;;;;;;;4.26;76.83;99536.66;4939614;29;20509;-70
2021/01/28 09:37:20;;;;;;;20.63;13.60;;;;;;;4.35;76.77;99531.47;4941057;28;20051;-70
2021/01/28 09:39:47;;;;;;;18.02;12.30;;;;;;;4.42;77.26;99531.50;4942668;28;20061;-69
2021/01/28 09:42:28;;;;;;;12.38;8.55;;;;;;;4.51;76.91;99521.94;4940723;28;20082;-69
2021/01/28 09:44:54;;;;;;;10.95;6.28;;;;;;;4.54;76.00;99521.06;4939594;29;20040;-70
2021/01/28 09:47:30;;;;;;;10.52;6.30;;;;;;;4.47;76.03;99527.16;4942180;29;20500;-70
2021/01/28 09:50:01;;;;;;;10.18;6.57;;;;;;;4.41;76.74;99534.97;4942658;28;20043;-70
2021/01/28 09:52:37;;;;;;;7.80;5.47;;;;;;;4.44;76.52;99527.16;4939195;29;20032;-69
2021/01/28 09:55:15;;;;;;;10.60;7.18;;;;;;;4.38;77.55;99526.25;4939706;29;20039;-70
2021/01/28 09:57:41;;;;;;;9.80;6.35;;;;;;;4.46;77.00;99522.81;4940091;28;20032;-69
2021/01/28 10:00:09;;;;;;;9.57;5.47;;;;;;;4.36;77.09;99514.94;4940228;29;20439;-69
2021/01/28 10:03:00;;;;;;;12.25;6.47;;;;;;;4.22;77.97;99519.25;4942229;28;20035;-70
2021/01/28 10:05:28;;;;;;;10.48;6.35;;;;;;;4.26;77.78;99510.53;4938662;29;20075;-70
2021/01/28 10:07:53;;;;;;;10.90;6.50;;;;;;;4.31;78.95;99498.38;4939231;29;20038;-70
2021/01/28 10:10:22;;;;;;;12.73;6.75;;;;;;;4.41;78.02;99498.41;4941907;29;20043;-70
2021/01/28 10:12:48;;;;;;;12.57;7.38;;;;;;;4.30;78.17;99507.09;4940631;28;20047;-69
2021/01/28 10:15:15;;;;;;;11.98;6.63;;;;;;;4.26;78.60;99500.09;4948973;28;20136;-70
2021/01/28 10:17:42;;;;;;;10.48;6.60;;;;;;;4.29;78.48;99494.88;4940366;28;20122;-70
2021/01/28 10:20:08;;;;;;;11.23;7.22;;;;;;;4.28;78.91;99487.91;4947040;28;20378;-69
2021/01/28 10:22:36;;;;;;;11.68;6.60;;;;;;;4.20;78.81;99489.63;4936634;29;20043;-70
2021/01/28 10:25:03;;;;;;;9.20;6.13;;;;;;;4.14;79.12;99487.03;4950341;28;20142;-70
2021/01/28 10:27:28;;;;;;;11.73;5.88;;;;;;;4.13;79.43;99480.03;4948742;29;20042;-69
2021/01/28 10:29:54;;;;;;;11.80;6.55;;;;;;;4.10;78.79;99472.19;4946093;28;20044;-69
2021/01/28 10:32:19;;;;;;;9.48;6.07;;;;;;;4.10;78.97;99469.59;4948200;29;20035;-69
2021/01/28 10:34:44;;;;;;;10.93;6.32;;;;;;;4.14;78.70;99469.59;4947760;29;20126;-69
2021/01/28 10:37:10;;;;;;;11.75;6.32;;;;;;;4.16;78.43;99464.38;4951697;28;20047;-69
2021/01/28 10:39:35;;;;;;;11.85;5.90;;;;;;;4.18;78.80;99467.88;4942038;29;20122;-69
2021/01/28 10:42:00;;;;;;;10.73;5.72;;;;;;;4.09;78.41;99460.88;4946816;29;20217;-70
2021/01/28 10:44:27;;;;;;;12.45;6.32;;;;;;;4.13;78.72;99456.53;4945374;28;20114;-67
2021/01/28 10:46:52;;;;;;;9.63;6.10;;;;;;;4.13;78.55;99446.94;4950659;29;20051;-69
2021/01/28 10:49:18;;;;;;;8.80;5.55;;;;;;;4.17;78.11;99440.03;4947540;28;20097;-69
2021/01/28 10:51:44;;;;;;;11.05;6.13;;;;;;;4.20;77.96;99437.41;4951265;29;20125;-69
2021/01/28 10:54:09;;;;;;;10.88;5.78;;;;;;;4.15;78.28;99434.78;4941882;28;20069;-70
2021/01/28 10:56:35;;;;;;;10.18;5.90;;;;;;;4.15;78.21;99426.09;4939950;29;20031;-70
2021/01/28 10:59:01;;;;;;;11.68;7.03;;;;;;;4.14;78.62;99426.97;4940328;29;20044;-70
2021/01/28 11:01:26;;;;;;;10.82;6.55;;;;;;;4.11;78.69;99424.31;4943480;29;20039;-70
2021/01/28 11:03:52;;;;;;;9.80;6.35;;;;;;;4.11;78.42;99421.69;4944601;28;20041;-69
2021/01/28 11:06:17;;;;;;;12.70;6.65;;;;;;;4.13;79.00;99417.38;4944089;29;20047;-70
2021/01/28 11:08:42;;;;;;;9.52;6.03;;;;;;;4.19;78.73;99409.53;4952722;28;20125;-70
2021/01/28 11:11:08;;;;;;;12.93;8.50;;;;;;;4.20;79.00;99408.69;4943954;28;20093;-70
2021/01/28 11:13:34;;;;;;;15.88;8.70;;;;;;;4.26;78.55;99394.75;4941671;29;20111;-69
2021/01/28 11:15:59;;;;;;;14.90;7.55;;;;;;;4.22;78.97;99393.91;4941543;29;20070;-70
2021/01/28 11:18:24;;;;;;;11.18;6.82;;;;;;;4.22;78.96;99391.28;4952766;28;20126;-69
2021/01/28 11:20:51;;;;;;;11.88;7.15;;;;;;;4.23;78.74;99379.94;4948056;28;20040;-69
2021/01/28 11:23:16;;;;;;;10.52;6.43;;;;;;;4.16;79.32;99383.41;4949532;28;20556;-69
2021/01/28 11:25:42;;;;;;;12.68;6.68;;;;;;;4.26;79.21;99382.56;4951539;28;20148;-69
2021/01/28 11:28:07;;;;;;;12.43;7.15;;;;;;;4.34;78.95;99383.44;4951673;29;20031;-69
2021/01/28 11:30:34;;;;;;;14.50;6.68;;;;;;;4.33;79.10;99373.88;4952532;28;20121;-69
2021/01/28 11:33:02;;;;;;;10.82;7.22;;;;;;;4.34;78.97;99373.00;4952587;28;20074;-69
2021/01/28 11:35:32;;;;;;;12.13;6.65;;;;;;;4.41;79.19;99362.56;4941167;29;20040;-70
2021/01/28 11:38:01;;;;;;;10.60;7.32;;;;;;;4.39;79.30;99365.16;4940280;29;20327;-69
2021/01/28 11:40:29;;;;;;;11.05;7.13;;;;;;;4.38;78.88;99364.28;4937479;29;20510;-68
2021/01/28 11:42:54;;;;;;;12.35;7.32;;;;;;;4.34;79.55;99356.44;4944359;29;20042;-70
2021/01/28 11:45:32;;;;;;;9.93;6.65;;;;;;;4.35;78.78;99359.06;4943812;29;20043;-70
2021/01/28 11:47:57;;;;;;;10.52;6.93;;;;;;;4.30;79.49;99350.38;4943288;29;20126;-69
2021/01/28 11:50:22;;;;;;;10.68;6.63;;;;;;;4.28;78.87;99359.94;4941044;28;20131;-69
2021/01/28 11:52:48;;;;;;;11.52;7.22;;;;;;;4.26;79.26;99353.84;4940972;29;20043;-69
2021/01/28 11:55:20;;;;;;;11.23;6.13;;;;;;;4.22;79.37;99348.59;4938433;29;20042;-69
2021/01/28 11:57:45;;;;;;;14.47;7.30;;;;;;;4.17;79.49;99344.25;4944238;28;20074;-68
2021/01/28 12:00:12;;;;;;;15.23;7.78;;;;;;;4.21;79.76;99345.13;4941099;28;20382;-69
2021/01/28 12:02:39;;;;;;;10.90;6.88;;;;;;;4.24;79.00;99346.88;4946076;28;20058;-69
2021/01/28 12:05:07;;;;;;;11.60;7.22;;;;;;;4.22;78.79;99344.28;4943905;28;20048;-68
2021/01/28 12:07:32;;;;;;;12.10;6.80;;;;;;;4.29;78.92;99332.06;4944242;28;20494;-69
2021/01/28 12:09:58;;;;;;;11.32;6.47;;;;;;;4.27;78.55;99329.47;4941913;29;20047;-69
2021/01/28 12:12:23;;;;;;;11.70;7.82;;;;;;;4.28;78.63;99325.97;4939801;29;20039;-71
2021/01/28 12:14:48;;;;;;;13.38;7.20;;;;;;;4.34;78.57;99325.97;4938467;29;20058;-69